Time;durP1;ratioP1;P1;durP2;ratioP2;P2;SDS_P1;SDS_P2;PMS_P1;PMS_P2;Temp;Humidity;BMP_temperature;BMP_pressure;BME280_temperature;BME280_humidity;BME280_pressure;Samples;Min_cycle;Max_cycle;Signal;HPM_P1;HPM_P2
2023/08/13 00:00:41;;;;;;;;;;;;;;;22.51;65.99;101178.97;5004897;28;4237;-64
2023/08/13 00:03:07;;;;;;;;;;;;;;;22.49;65.76;101176.00;5000407;28;4159;-63
2023/08/13 00:05:34;;;;;;;;;;;;;;;22.49;66.49;101190.44;4998036;28;4145;-64
2023/08/13 00:08:00;;;;;;;;;;;;;;;22.49;66.53;101178.91;5000961;28;4049;-63
2023/08/13 00:10:27;;;;;;;;;;;;;;;22.50;66.32;101191.19;5001592;28;4660;-63
2023/08/13 00:12:53;;;;;;;;;;;;;;;22.49;66.49;101190.44;4999500;28;5128;-64
2023/08/13 00:15:20;;;;;;;;;;;;;;;22.50;66.33;101199.88;5004881;28;3978;-63
2023/08/13 00:17:46;;;;;;;;;;;;;;;22.49;66.36;101196.22;5003696;28;4222;-63
2023/08/13 00:20:13;;;;;;;;;;;;;;;22.49;66.29;101201.97;4998913;28;4114;-63
2023/08/13 00:22:40;;;;;;;;;;;;;;;22.49;66.63;101196.22;4999761;28;4238;-63
2023/08/13 00:25:07;;;;;;;;;;;;;;;22.48;66.53;101191.84;4997657;28;4141;-64
2023/08/13 00:27:33;;;;;;;;;;;;;;;22.48;66.68;101191.13;4999522;28;4428;-63
2023/08/13 00:30:00;;;;;;;;;;;;;;;22.48;66.38;101200.50;4996757;28;5078;-63
2023/08/13 00:32:26;;;;;;;;;;;;;;;22.48;66.78;101197.63;4998910;28;4126;-64
2023/08/13 00:34:53;;;;;;;;;;;;;;;22.47;66.69;101198.28;4996818;28;4502;-63
2023/08/13 00:37:19;;;;;;;;;;;;;;;22.47;66.64;101196.16;5012286;28;4148;-64
2023/08/13 00:39:45;;;;;;;;;;;;;;;22.48;66.84;101188.97;5000903;28;4029;-63
2023/08/13 00:42:12;;;;;;;;;;;;;;;22.46;66.59;101200.41;5010865;28;4329;-63
2023/08/13 00:44:39;;;;;;;;;;;;;;;22.46;66.79;101202.56;4999109;28;4173;-64
2023/08/13 00:47:05;;;;;;;;;;;;;;;22.47;66.89;101204.81;5000461;28;4117;-63
2023/08/13 00:49:32;;;;;;;;;;;;;;;22.46;67.02;101214.84;4999977;28;4068;-64
2023/08/13 00:51:58;;;;;;;;;;;;;;;22.46;66.87;101220.63;5000385;28;4139;-63
2023/08/13 00:54:24;;;;;;;;;;;;;;;22.46;67.07;101226.38;5005214;28;3993;-64
2023/08/13 00:56:51;;;;;;;;;;;;;;;22.46;66.86;101237.94;4998754;28;4073;-64
2023/08/13 00:59:18;;;;;;;;;;;;;;;22.45;67.03;101230.69;5002852;28;4186;-63
2023/08/13 01:01:44;;;;;;;;;;;;;;;22.46;67.17;101232.16;4996995;28;4399;-63
2023/08/13 01:04:11;;;;;;;;;;;;;;;22.46;66.93;101231.44;5017782;28;4054;-64
2023/08/13 01:06:56;;;;;;;;;;;;;;;22.45;66.98;101235.69;5009902;28;4469;-64
2023/08/13 01:09:26;;;;;;;;;;;;;;;22.45;67.19;101233.56;4999354;28;4071;-63
2023/08/13 01:12:03;;;;;;;;;;;;;;;22.45;67.30;101236.47;4998842;28;4028;-63
2023/08/13 01:14:33;;;;;;;;;;;;;;;22.45;67.00;101239.34;5006698;28;3956;-64
2023/08/13 01:16:59;;;;;;;;;;;;;;;22.45;67.05;101241.47;5000024;28;4187;-63
2023/08/13 01:19:25;;;;;;;;;;;;;;;22.45;67.33;101241.47;5011300;28;4576;-64
2023/08/13 01:21:53;;;;;;;;;;;;;;;22.44;67.05;101246.50;4997694;28;4033;-63
2023/08/13 01:24:20;;;;;;;;;;;;;;;22.44;67.22;101240.72;5005726;28;4143;-63
2023/08/13 01:26:53;;;;;;;;;;;;;;;22.44;67.17;101246.50;5004688;28;4213;-63
2023/08/13 01:29:26;;;;;;;;;;;;;;;22.44;67.11;101246.50;5004960;28;4196;-63
2023/08/13 01:31:52;;;;;;;;;;;;;;;22.45;66.98;101241.47;5000161;28;4046;-63
2023/08/13 01:34:19;;;;;;;;;;;;;;;22.44;67.05;101243.63;4995879;28;4066;-64
2023/08/13 01:36:46;;;;;;;;;;;;;;;22.44;67.01;101252.28;5000404;28;4462;-63
2023/08/13 01:39:12;;;;;;;;;;;;;;;22.44;67.25;101251.53;5001744;28;4149;-64
2023/08/13 01:41:43;;;;;;;;;;;;;;;22.44;67.53;101252.28;4996066;28;4107;-63
2023/08/13 01:44:09;;;;;;;;;;;;;;;22.43;67.31;101259.44;4998820;28;4144;-63
2023/08/13 01:50:29;;;;;;;;;;;;;;;22.44;67.40;101260.94;4969447;28;4210;-64
2023/08/13 01:52:55;;;;;;;;;;;;;;;22.43;67.21;101255.81;4975401;28;4207;-63
2023/08/13 01:55:22;;;;;;;;;;;;;;;22.43;67.18;101256.56;4996463;28;4056;-63
2023/08/13 01:57:49;;;;;;;;;;;;;;;22.43;67.40;101268.09;4998840;28;4017;-64
2023/08/13 02:00:16;;;;;;;;;;;;;;;22.44;67.42;101265.97;5013490;28;4006;-64
2023/08/13 02:02:42;;;;;;;;;;;;;;;22.43;67.17;101268.09;5000176;28;4336;-64
2023/08/13 02:05:08;;;;;;;;;;;;;;;22.43;67.32;101267.38;5004516;28;4113;-64
2023/08/13 02:07:35;;;;;;;;;;;;;;;22.42;67.58;101269.50;5002713;28;4229;-64
2023/08/13 02:10:03;;;;;;;;;;;;;;;22.43;67.36;101270.25;5001247;28;4170;-64
2023/08/13 02:12:30;;;;;;;;;;;;;;;22.41;67.84;101270.91;4999911;28;4159;-64
2023/08/13 02:14:56;;;;;;;;;;;;;;;22.41;67.43;101273.78;5000031;28;4077;-63
2023/08/13 02:17:23;;;;;;;;;;;;;;;22.41;67.81;101282.44;5002450;28;4154;-64
2023/08/13 02:19:49;;;;;;;;;;;;;;;22.40;67.61;101280.94;4997700;28;4285;-63
2023/08/13 02:22:16;;;;;;;;;;;;;;;22.41;67.40;101288.22;5001980;28;4130;-63
2023/08/13 02:24:42;;;;;;;;;;;;;;;22.40;67.53;101286.72;5015084;28;4040;-64
2023/08/13 02:27:09;;;;;;;;;;;;;;;22.39;67.25;101276.56;5000448;28;4002;-64
2023/08/13 02:29:35;;;;;;;;;;;;;;;22.39;67.52;101279.47;4998367;28;4044;-64
2023/08/13 02:32:01;;;;;;;;;;;;;;;22.38;67.50;101284.50;4997627;28;4125;-64
2023/08/13 02:34:30;;;;;;;;;;;;;;;22.38;67.24;101283.75;5003496;28;4032;-66
2023/08/13 02:36:56;;;;;;;;;;;;;;;22.36;67.32;101281.50;5003148;28;4139;-63
2023/08/13 02:39:22;;;;;;;;;;;;;;;22.36;67.50;101287.28;5018707;28;3944;-64
2023/08/13 02:41:49;;;;;;;;;;;;;;;22.36;67.29;101289.44;4999504;28;4238;-64
2023/08/13 02:44:15;;;;;;;;;;;;;;;22.36;67.29;101280.78;5006331;28;4679;-64
2023/08/13 02:46:42;;;;;;;;;;;;;;;22.34;67.34;101295.13;4997165;28;4100;-64
2023/08/13 02:49:10;;;;;;;;;;;;;;;22.34;67.27;101289.34;4999485;28;4116;-64
2023/08/13 02:51:36;;;;;;;;;;;;;;;22.33;67.42;101287.84;5009686;28;4278;-64
2023/08/13 02:54:03;;;;;;;;;;;;;;;22.32;67.20;101289.25;4997895;28;4131;-64
2023/08/13 02:56:29;;;;;;;;;;;;;;;22.32;67.31;101274.81;4999033;28;4232;-64
2023/08/13 02:58:55;;;;;;;;;;;;;;;22.33;67.17;101296.50;4999517;28;4171;-64
2023/08/13 03:01:22;;;;;;;;;;;;;;;22.30;67.18;101284.13;4996604;28;4172;-64
2023/08/13 03:03:49;;;;;;;;;;;;;;;22.29;67.16;101293.44;5008103;28;4106;-63
2023/08/13 03:06:19;;;;;;;;;;;;;;;22.28;67.00;101298.44;4994749;28;4187;-64
2023/08/13 03:08:46;;;;;;;;;;;;;;;22.29;67.41;101294.19;5005540;28;4772;-63
2023/08/13 03:11:12;;;;;;;;;;;;;;;22.29;67.10;101302.84;4999522;28;5166;-64
2023/08/13 03:13:39;;;;;;;;;;;;;;;22.28;66.93;101304.22;4996625;28;4250;-64
2023/08/13 03:16:06;;;;;;;;;;;;;;;22.29;67.11;101310.75;4996525;28;4207;-64
2023/08/13 03:18:32;;;;;;;;;;;;;;;22.28;67.14;101300.59;5008269;28;4233;-64
2023/08/13 03:21:01;;;;;;;;;;;;;;;22.29;66.94;101314.38;4993310;28;4143;-64
2023/08/13 03:23:29;;;;;;;;;;;;;;;22.30;67.12;101312.22;4994452;28;4119;-64
2023/08/13 03:25:55;;;;;;;;;;;;;;;22.28;66.96;101312.13;5003403;28;3989;-63
2023/08/13 03:28:22;;;;;;;;;;;;;;;22.28;66.88;101320.78;5004833;28;4231;-64
2023/08/13 03:30:50;;;;;;;;;;;;;;;22.28;66.91;101317.91;5010870;28;4160;-63
2023/08/13 03:33:16;;;;;;;;;;;;;;;22.28;66.75;101320.78;5015453;28;3968;-64
2023/08/13 03:35:43;;;;;;;;;;;;;;;22.28;67.09;101312.13;4997844;28;4176;-64
2023/08/13 03:38:11;;;;;;;;;;;;;;;22.29;66.79;101322.28;5006183;28;4806;-63
2023/08/13 03:40:38;;;;;;;;;;;;;;;22.28;66.71;101320.78;4997679;28;4359;-64
2023/08/13 03:43:04;;;;;;;;;;;;;;;22.27;66.58;101334.47;5002675;28;4121;-64
2023/08/13 03:45:31;;;;;;;;;;;;;;;22.27;66.60;101333.75;5003431;28;4154;-64
2023/08/13 03:47:57;;;;;;;;;;;;;;;22.28;66.56;101343.88;5002143;28;4337;-64
2023/08/13 03:50:24;;;;;;;;;;;;;;;22.27;66.77;101346.03;5002049;28;4082;-64
2023/08/13 03:52:50;;;;;;;;;;;;;;;22.27;66.51;101345.28;5016944;28;4214;-63
2023/08/13 03:55:17;;;;;;;;;;;;;;;22.25;66.46;101348.06;5005547;28;4091;-64
2023/08/13 03:57:43;;;;;;;;;;;;;;;22.26;66.47;101335.84;5018622;28;4295;-63
2023/08/13 04:00:11;;;;;;;;;;;;;;;22.26;66.85;101340.88;4990345;28;4016;-64
2023/08/13 04:02:40;;;;;;;;;;;;;;;22.28;66.49;101338.09;5006830;28;4339;-64
2023/08/13 04:05:07;;;;;;;;;;;;;;;22.27;66.53;101333.75;5001921;28;3972;-64
2023/08/13 04:07:33;;;;;;;;;;;;;;;22.27;66.43;101336.63;5004386;28;4131;-64
2023/08/13 04:10:00;;;;;;;;;;;;;;;22.26;66.46;101338.75;5006236;28;4192;-63
2023/08/13 04:12:27;;;;;;;;;;;;;;;22.26;66.69;101338.00;5019455;28;4258;-64
2023/08/13 04:14:53;;;;;;;;;;;;;;;22.26;66.81;101341.63;5000855;28;3965;-64
2023/08/13 04:17:21;;;;;;;;;;;;;;;22.26;66.75;101347.41;5003928;28;4085;-64
2023/08/13 04:19:47;;;;;;;;;;;;;;;22.27;66.67;101348.16;4998636;28;4179;-63
2023/08/13 04:22:14;;;;;;;;;;;;;;;22.26;66.58;101344.50;5005316;28;4088;-64
2023/08/13 04:24:41;;;;;;;;;;;;;;;22.25;66.76;101339.41;4997741;28;4118;-64
2023/08/13 04:27:07;;;;;;;;;;;;;;;22.26;66.67;101340.88;5008801;28;4117;-64
2023/08/13 04:29:34;;;;;;;;;;;;;;;22.26;66.60;101349.53;5015720;28;4147;-64
2023/08/13 04:32:00;;;;;;;;;;;;;;;22.26;66.77;101343.78;5001768;28;4126;-64
2023/08/13 04:34:27;;;;;;;;;;;;;;;22.24;66.59;101350.22;5002899;28;4590;-64
2023/08/13 04:36:53;;;;;;;;;;;;;;;22.23;66.90;101347.97;5019921;28;4222;-64
2023/08/13 04:39:20;;;;;;;;;;;;;;;22.24;66.79;101346.56;4997334;28;4154;-64
2023/08/13 04:41:46;;;;;;;;;;;;;;;22.25;66.68;101339.41;5021249;28;4171;-63
2023/08/13 04:44:13;;;;;;;;;;;;;;;22.25;66.65;101343.03;5008102;28;4212;-64
2023/08/13 04:46:41;;;;;;;;;;;;;;;22.24;66.76;101344.44;5008173;28;4210;-64
2023/08/13 04:49:07;;;;;;;;;;;;;;;22.24;66.78;101344.44;5018174;28;3967;-64
2023/08/13 04:51:35;;;;;;;;;;;;;;;22.25;66.98;101350.94;5003456;28;3977;-64
2023/08/13 04:54:02;;;;;;;;;;;;;;;22.25;66.76;101353.84;5004815;28;4103;-64
2023/08/13 04:56:29;;;;;;;;;;;;;;;22.24;66.83;101358.09;5002120;28;4134;-64
2023/08/13 04:58:56;;;;;;;;;;;;;;;22.24;66.95;101361.00;4994546;28;4173;-63
2023/08/13 05:01:22;;;;;;;;;;;;;;;22.26;66.72;101358.19;5016060;28;5439;-64
2023/08/13 05:03:52;;;;;;;;;;;;;;;22.24;66.93;101353.09;4996515;28;4139;-63
2023/08/13 05:06:18;;;;;;;;;;;;;;;22.24;66.91;101355.22;5011340;28;4066;-64
2023/08/13 05:08:45;;;;;;;;;;;;;;;22.24;67.00;101349.44;4996385;28;4019;-63
2023/08/13 05:11:11;;;;;;;;;;;;;;;22.24;67.01;101349.44;5003955;28;4273;-64
2023/08/13 05:13:38;;;;;;;;;;;;;;;22.24;66.79;101355.97;5018668;28;4185;-63
2023/08/13 05:16:04;;;;;;;;;;;;;;;22.25;66.90;101351.69;5007350;28;5395;-64
2023/08/13 05:18:31;;;;;;;;;;;;;;;22.25;66.87;101357.47;5012225;28;4030;-64
2023/08/13 05:20:58;;;;;;;;;;;;;;;22.25;67.09;101362.50;5001013;28;4254;-63
2023/08/13 05:23:24;;;;;;;;;;;;;;;22.25;66.79;101356.72;4998227;28;4047;-63
2023/08/13 05:25:51;;;;;;;;;;;;;;;22.25;66.99;101371.16;5003573;28;4132;-64
2023/08/13 05:28:18;;;;;;;;;;;;;;;22.28;66.82;101372.72;4996771;28;4280;-64
2023/08/13 05:30:44;;;;;;;;;;;;;;;22.27;66.94;101368.34;4996657;28;4157;-64
2023/08/13 05:33:11;;;;;;;;;;;;;;;22.24;67.03;101372.53;5004662;28;5075;-64
2023/08/13 05:35:38;;;;;;;;;;;;;;;22.21;67.21;101374.56;5016134;28;4127;-64
2023/08/13 05:38:05;;;;;;;;;;;;;;;22.22;67.05;101370.31;4997426;28;4055;-63
2023/08/13 05:40:31;;;;;;;;;;;;;;;22.24;67.14;101381.94;5015656;28;4136;-64
2023/08/13 05:42:59;;;;;;;;;;;;;;;22.25;67.13;101371.16;4997947;28;3902;-64
2023/08/13 05:45:27;;;;;;;;;;;;;;;22.25;67.15;101374.03;5010432;28;3953;-64
2023/08/13 05:47:53;;;;;;;;;;;;;;;22.26;67.11;101373.38;4997388;28;4030;-64
2023/08/13 05:50:20;;;;;;;;;;;;;;;22.28;67.01;101379.22;5012187;28;4743;-64
2023/08/13 05:52:46;;;;;;;;;;;;;;;22.27;66.83;101374.13;4996355;28;4240;-63
2023/08/13 05:55:13;;;;;;;;;;;;;;;22.27;66.75;101382.78;5004190;28;4081;-64
2023/08/13 05:57:39;;;;;;;;;;;;;;;22.29;66.55;101380.00;4994440;28;4248;-64
2023/08/13 06:00:09;;;;;;;;;;;;;;;22.30;66.42;101369.94;4992859;28;4165;-64
2023/08/13 06:02:40;;;;;;;;;;;;;;;22.29;66.73;101377.84;4990987;28;4054;-64
2023/08/13 06:05:06;;;;;;;;;;;;;;;22.30;66.50;101381.47;4997571;28;4097;-64
2023/08/13 06:07:34;;;;;;;;;;;;;;;22.30;66.55;101381.47;4998444;28;4017;-64
2023/08/13 06:10:01;;;;;;;;;;;;;;;22.30;66.40;101381.47;4998405;28;4233;-63
2023/08/13 06:12:27;;;;;;;;;;;;;;;22.30;66.41;101390.88;4994239;28;4123;-64
2023/08/13 06:14:54;;;;;;;;;;;;;;;22.30;66.37;101387.25;4995652;28;4180;-64
2023/08/13 06:17:20;;;;;;;;;;;;;;;22.29;66.51;101386.50;5000713;28;4065;-64
2023/08/13 06:19:47;;;;;;;;;;;;;;;22.29;66.46;101388.66;4994961;28;4301;-64
2023/08/13 06:22:13;;;;;;;;;;;;;;;22.30;66.54;101393.75;4995772;28;4008;-64
2023/08/13 06:24:40;;;;;;;;;;;;;;;22.30;66.64;101401.66;4996162;28;4169;-63
2023/08/13 06:27:06;;;;;;;;;;;;;;;22.29;66.44;101394.41;4996208;28;4128;-64
2023/08/13 06:29:33;;;;;;;;;;;;;;;22.30;66.50;101393.75;4999829;28;3965;-64
2023/08/13 06:31:59;;;;;;;;;;;;;;;22.30;66.24;101404.56;4996940;28;4291;-64
2023/08/13 06:34:26;;;;;;;;;;;;;;;22.30;66.25;101395.91;4994995;28;4176;-64
2023/08/13 06:36:53;;;;;;;;;;;;;;;22.30;66.19;101393.00;4995674;28;4448;-64
2023/08/13 06:39:21;;;;;;;;;;;;;;;22.29;66.04;101397.31;5001991;28;4040;-64
2023/08/13 06:41:47;;;;;;;;;;;;;;;22.31;66.12;101388.72;5004888;28;3990;-63
2023/08/13 06:44:20;;;;;;;;;;;;;;;22.30;66.30;101390.13;4998535;28;4244;-64
2023/08/13 06:46:46;;;;;;;;;;;;;;;22.31;65.95;101394.50;4998800;28;4034;-64
2023/08/13 06:49:13;;;;;;;;;;;;;;;22.32;65.84;101390.22;5004103;28;3919;-63
2023/08/13 06:51:39;;;;;;;;;;;;;;;22.31;66.09;101391.59;4999011;28;4156;-64
2023/08/13 06:54:06;;;;;;;;;;;;;;;22.32;65.79;101393.13;5000121;28;4138;-64
2023/08/13 06:56:33;;;;;;;;;;;;;;;22.32;66.19;101396.00;5011546;28;4177;-64
2023/08/13 06:58:59;;;;;;;;;;;;;;;22.31;65.75;101394.50;4999815;28;4240;-64
2023/08/13 07:01:29;;;;;;;;;;;;;;;22.30;65.95;101393.75;4990288;28;3971;-64
2023/08/13 07:03:56;;;;;;;;;;;;;;;22.31;65.85;101391.59;4995966;28;4329;-64
2023/08/13 07:06:23;;;;;;;;;;;;;;;22.31;65.89;101395.25;4999477;28;4055;-64
2023/08/13 07:08:49;;;;;;;;;;;;;;;22.32;65.67;101401.78;4996839;28;4178;-63
2023/08/13 07:11:16;;;;;;;;;;;;;;;22.31;65.73;101395.25;5002536;28;4149;-64
2023/08/13 07:13:42;;;;;;;;;;;;;;;22.32;65.52;101398.88;5003127;28;4543;-64
2023/08/13 07:16:13;;;;;;;;;;;;;;;22.31;65.66;101397.38;5000490;28;5079;-64
2023/08/13 07:18:42;;;;;;;;;;;;;;;22.30;65.86;101393.75;4999120;28;4245;-66
2023/08/13 07:21:08;;;;;;;;;;;;;;;22.30;64.93;101398.78;5001457;28;4273;-66
2023/08/13 07:23:35;;;;;;;;;;;;;;;22.26;64.25;101399.31;4997787;28;4157;-67
2023/08/13 07:26:01;;;;;;;;;;;;;;;22.23;63.89;101405.66;4999255;28;4180;-66
2023/08/13 07:28:28;;;;;;;;;;;;;;;22.17;63.66;101409.72;5003549;28;4219;-65
2023/08/13 07:30:54;;;;;;;;;;;;;;;22.22;64.81;101415.69;4998418;28;4316;-65
2023/08/13 07:33:21;;;;;;;;;;;;;;;22.23;64.53;101402.78;5003293;28;4207;-64
2023/08/13 07:35:47;;;;;;;;;;;;;;;22.28;64.55;101402.31;4996381;28;4273;-64
2023/08/13 07:38:14;;;;;;;;;;;;;;;22.28;64.23;101404.47;5005096;28;4065;-65
2023/08/13 07:40:40;;;;;;;;;;;;;;;22.31;63.85;101409.69;5002673;28;4053;-65
2023/08/13 07:43:07;;;;;;;;;;;;;;;22.32;64.01;101408.28;5005459;28;4162;-66
2023/08/13 07:45:34;;;;;;;;;;;;;;;22.32;63.81;101407.53;5003431;28;3976;-69
2023/08/13 07:48:00;;;;;;;;;;;;;;;22.33;63.49;101406.13;5017241;28;4117;-68
2023/08/13 07:50:28;;;;;;;;;;;;;;;22.39;63.16;101412.19;5009026;28;4151;-69
2023/08/13 07:52:54;;;;;;;;;;;;;;;22.37;63.05;101409.22;5004170;28;4047;-65
2023/08/13 07:55:20;;;;;;;;;;;;;;;22.40;62.35;101410.78;5008707;28;4094;-65
2023/08/13 07:57:48;;;;;;;;;;;;;;;22.38;62.78;101408.56;5001103;28;4099;-66
2023/08/13 08:00:16;;;;;;;;;;;;;;;22.41;62.56;101411.56;5005460;28;3952;-65
2023/08/13 08:02:42;;;;;;;;;;;;;;;22.40;63.11;101413.66;4998335;28;4183;-65
2023/08/13 08:05:10;;;;;;;;;;;;;;;22.40;63.06;101418.72;5004457;28;4169;-66
2023/08/13 08:07:36;;;;;;;;;;;;;;;22.45;63.02;101414.59;5001568;28;5008;-63
2023/08/13 08:10:03;;;;;;;;;;;;;;;22.46;62.87;101411.09;5004021;28;4904;-63
2023/08/13 08:12:30;;;;;;;;;;;;;;;22.46;62.98;101419.75;5002288;28;4301;-63
2023/08/13 08:14:56;;;;;;;;;;;;;;;22.46;62.55;101419.75;5000170;28;4346;-63
2023/08/13 08:17:22;;;;;;;;;;;;;;;22.46;62.63;101416.13;5000483;28;4098;-63
2023/08/13 08:19:50;;;;;;;;;;;;;;;22.45;62.86;101409.59;4999861;28;4128;-63
2023/08/13 08:22:16;;;;;;;;;;;;;;;22.45;63.19;101406.72;5003060;28;4121;-63
2023/08/13 08:24:43;;;;;;;;;;;;;;;22.45;63.11;101409.59;5004841;28;4084;-63
2023/08/13 08:27:09;;;;;;;;;;;;;;;22.45;63.16;101405.94;5018384;28;5107;-63
2023/08/13 08:29:36;;;;;;;;;;;;;;;22.45;63.38;101403.06;5000203;28;4194;-63
2023/08/13 08:32:02;;;;;;;;;;;;;;;22.46;63.18;101398.78;4997261;28;4197;-63
2023/08/13 08:34:30;;;;;;;;;;;;;;;22.46;63.06;101398.78;4998437;28;4119;-63
2023/08/13 08:36:56;;;;;;;;;;;;;;;22.45;63.13;101400.19;4996787;28;4022;-63
2023/08/13 08:39:23;;;;;;;;;;;;;;;22.45;63.42;101403.84;5003132;28;4215;-68
2023/08/13 08:41:49;;;;;;;;;;;;;;;22.46;63.40;101398.78;5004610;28;5081;-66
2023/08/13 08:44:20;;;;;;;;;;;;;;;22.39;63.33;101394.88;4999164;28;4223;-64
2023/08/13 08:46:50;;;;;;;;;;;;;;;22.45;63.31;101398.06;4999933;28;4201;-63
2023/08/13 08:49:18;;;;;;;;;;;;;;;22.45;63.26;101398.06;5003645;28;4112;-62
2023/08/13 08:51:44;;;;;;;;;;;;;;;22.43;63.33;101386.41;5008474;28;4531;-63
2023/08/13 08:54:11;;;;;;;;;;;;;;;22.49;63.21;101391.72;5005411;28;4180;-63
2023/08/13 08:56:37;;;;;;;;;;;;;;;22.52;63.54;101385.41;4999448;28;4049;-62
2023/08/13 08:59:04;;;;;;;;;;;;;;;22.51;63.84;101386.03;5012050;28;4034;-61
2023/08/13 09:01:31;;;;;;;;;;;;;;;22.55;63.96;101398.50;5002998;28;4034;-62
2023/08/13 09:03:57;;;;;;;;;;;;;;;22.55;63.62;101394.88;5003552;28;4091;-62
2023/08/13 09:06:24;;;;;;;;;;;;;;;22.58;63.17;101394.31;4998508;28;4169;-62
2023/08/13 09:08:51;;;;;;;;;;;;;;;22.61;63.36;101391.53;4996001;28;4311;-62
2023/08/13 09:11:18;;;;;;;;;;;;;;;22.59;63.08;101383.53;5002519;28;4191;-62
2023/08/13 09:13:47;;;;;;;;;;;;;;;22.59;62.74;101383.53;5002954;28;4246;-63
2023/08/13 09:16:14;;;;;;;;;;;;;;;22.59;62.52;101390.03;5002022;28;4209;-62
2023/08/13 09:18:40;;;;;;;;;;;;;;;22.61;62.76;101397.28;5005826;28;4195;-62
2023/08/13 09:21:08;;;;;;;;;;;;;;;22.54;62.49;101385.50;5000765;28;3996;-62
2023/08/13 09:23:36;;;;;;;;;;;;;;;22.57;62.08;101380.56;5006786;28;4598;-62
2023/08/13 09:26:03;;;;;;;;;;;;;;;22.57;61.36;101381.28;5015866;28;4136;-62
2023/08/13 09:28:29;;;;;;;;;;;;;;;22.61;61.69;101379.97;5001100;28;4210;-62
2023/08/13 09:30:58;;;;;;;;;;;;;;;22.57;61.98;101375.53;5017541;28;4166;-61
2023/08/13 09:33:26;;;;;;;;;;;;;;;22.57;61.61;101375.53;4995618;28;4474;-62
2023/08/13 09:35:52;;;;;;;;;;;;;;;22.55;61.42;101372.53;5003758;28;4043;-62
2023/08/13 09:38:18;;;;;;;;;;;;;;;22.58;61.44;101371.22;4999571;28;4309;-62
2023/08/13 09:40:45;;;;;;;;;;;;;;;22.56;61.28;101362.50;5002856;28;4193;-63
2023/08/13 09:43:12;;;;;;;;;;;;;;;22.59;61.67;101366.97;4997712;28;4288;-62
2023/08/13 09:45:38;;;;;;;;;;;;;;;22.57;61.16;101375.53;4994874;28;4141;-62
2023/08/13 09:48:05;;;;;;;;;;;;;;;22.58;61.39;101374.09;5001255;28;4176;-62
2023/08/13 09:50:34;;;;;;;;;;;;;;;22.61;60.83;101368.44;4997684;28;4129;-62
2023/08/13 09:53:01;;;;;;;;;;;;;;;22.61;60.60;101368.44;4997566;28;4149;-62
2023/08/13 09:55:29;;;;;;;;;;;;;;;22.59;60.88;101372.72;4997743;28;4159;-62
2023/08/13 09:57:55;;;;;;;;;;;;;;;22.61;60.51;101374.97;5004237;28;4166;-62
2023/08/13 10:00:22;;;;;;;;;;;;;;;22.61;60.57;101365.53;4996030;28;3918;-62
2023/08/13 10:02:49;;;;;;;;;;;;;;;22.58;60.60;101365.44;4996484;28;4193;-62
2023/08/13 10:05:16;;;;;;;;;;;;;;;22.57;60.84;101361.09;5002089;28;4027;-62
2023/08/13 10:07:42;;;;;;;;;;;;;;;22.58;60.51;101362.56;4998137;28;4219;-62
2023/08/13 10:10:09;;;;;;;;;;;;;;;22.61;60.27;101363.44;4993677;28;4121;-62
2023/08/13 10:12:35;;;;;;;;;;;;;;;22.60;60.73;101367.69;4985249;28;4151;-64
2023/08/13 10:15:02;;;;;;;;;;;;;;;22.57;60.23;101369.75;5004830;28;4064;-65
2023/08/13 10:17:28;;;;;;;;;;;;;;;22.66;60.47;101370.13;4993882;28;4140;-65
2023/08/13 10:19:55;;;;;;;;;;;;;;;22.67;60.21;101371.59;4984639;28;4341;-65
2023/08/13 10:22:37;;;;;;;;;;;;;;;22.65;60.76;101369.34;4992817;28;4139;-65
2023/08/13 10:25:06;;;;;;;;;;;;;;;22.64;60.66;101370.03;4995079;28;4065;-65
2023/08/13 10:27:36;;;;;;;;;;;;;;;22.64;60.62;101370.03;4978805;28;4883;-65
2023/08/13 10:30:02;;;;;;;;;;;;;;;22.64;60.63;101375.81;4992597;28;4445;-65
2023/08/13 10:32:29;;;;;;;;;;;;;;;22.64;61.16;101364.25;4996334;28;4823;-65
2023/08/13 10:34:55;;;;;;;;;;;;;;;22.66;61.05;101375.91;4998349;28;3960;-65
2023/08/13 10:37:22;;;;;;;;;;;;;;;22.66;60.99;101370.13;5010526;28;4331;-69
2023/08/13 10:39:54;;;;;;;;;;;;;;;22.76;60.94;101374.19;4994788;28;4667;-64
2023/08/13 10:42:27;;;;;;;;;;;;;;;22.73;60.78;101381.28;4996591;28;4243;-63
2023/08/13 10:44:53;;;;;;;;;;;;;;;22.77;61.16;101383.63;4995167;28;4155;-68
2023/08/13 10:47:20;;;;;;;;;;;;;;;23.11;60.47;101380.78;5004307;28;3976;-67
2023/08/13 10:49:46;;;;;;;;;;;;;;;23.27;60.03;101378.56;4999469;28;4976;-68
2023/08/13 10:52:13;;;;;;;;;;;;;;;23.35;59.97;101383.97;5005194;28;4157;-65
2023/08/13 10:54:40;;;;;;;;;;;;;;;23.40;59.97;101379.84;5006814;28;4234;-68
2023/08/13 10:57:06;;;;;;;;;;;;;;;23.47;59.89;101380.84;5002611;28;3967;-65
2023/08/13 10:59:38;;;;;;;;;;;;;;;23.46;59.63;101379.38;5007865;28;4024;-64
2023/08/13 11:02:08;;;;;;;;;;;;;;;23.49;59.60;101375.88;5002951;28;4160;-65
2023/08/13 11:04:35;;;;;;;;;;;;;;;23.52;59.75;101379.59;5007052;28;4103;-66
2023/08/13 11:07:01;;;;;;;;;;;;;;;23.65;59.62;101381.59;5007201;28;4501;-65
2023/08/13 11:09:30;;;;;;;;;;;;;;;23.71;59.40;101378.97;5009956;28;4089;-66
2023/08/13 11:11:57;;;;;;;;;;;;;;;23.74;59.31;101382.69;5000287;28;4136;-67
2023/08/13 11:14:23;;;;;;;;;;;;;;;23.74;59.62;101374.78;5003236;28;4109;-65
2023/08/13 11:16:51;;;;;;;;;;;;;;;23.83;59.36;101372.97;5005340;28;4184;-68
2023/08/13 11:19:17;;;;;;;;;;;;;;;23.77;60.01;101370.56;5005973;28;4196;-68
2023/08/13 11:21:44;;;;;;;;;;;;;;;23.79;59.86;101369.91;5000352;28;4127;-67
2023/08/13 11:24:10;;;;;;;;;;;;;;;23.75;59.69;101372.63;4998998;28;4004;-68
2023/08/13 11:26:38;;;;;;;;;;;;;;;23.82;59.54;101372.22;5003184;28;4189;-65
2023/08/13 11:29:04;;;;;;;;;;;;;;;23.86;59.67;101356.44;4996646;28;4518;-66
2023/08/13 11:31:33;;;;;;;;;;;;;;;23.82;59.61;101354.88;4999696;28;4000;-66
2023/08/13 11:34:00;;;;;;;;;;;;;;;23.67;59.84;101349.88;4989487;28;4206;-66
2023/08/13 11:36:26;;;;;;;;;;;;;;;23.63;59.96;101356.22;4979932;28;4029;-64
2023/08/13 11:38:53;;;;;;;;;;;;;;;23.76;60.06;101356.78;4979467;28;4151;-66
2023/08/13 11:41:20;;;;;;;;;;;;;;;23.71;60.62;101360.84;4993904;28;3958;-65
2023/08/13 11:43:53;;;;;;;;;;;;;;;23.62;60.28;101360.53;4982589;28;4055;-64
2023/08/13 11:46:19;;;;;;;;;;;;;;;23.69;60.26;101352.84;5002659;28;4028;-66
2023/08/13 11:48:46;;;;;;;;;;;;;;;23.64;60.20;101345.44;4997109;28;4189;-66
2023/08/13 11:51:13;;;;;;;;;;;;;;;23.73;60.41;101347.25;5000398;28;4295;-64
2023/08/13 11:53:46;;;;;;;;;;;;;;;23.77;60.17;101341.63;4994446;28;4178;-65
2023/08/13 11:56:13;;;;;;;;;;;;;;;23.87;60.16;101337.66;4988631;28;4159;-67
2023/08/13 11:58:39;;;;;;;;;;;;;;;23.82;59.98;101346.19;4989823;28;4137;-68
2023/08/13 12:01:06;;;;;;;;;;;;;;;23.79;59.69;101338.81;4985715;28;4198;-68
2023/08/13 12:03:36;;;;;;;;;;;;;;;23.85;59.53;101334.72;4979322;28;4178;-68
2023/08/13 12:06:02;;;;;;;;;;;;;;;23.87;59.37;101331.88;4977786;28;4114;-67
2023/08/13 12:08:29;;;;;;;;;;;;;;;23.93;59.27;101332.84;4978328;28;4149;-65
2023/08/13 12:10:55;;;;;;;;;;;;;;;23.93;59.22;101343.69;4982005;28;4263;-67
2023/08/13 12:13:22;;;;;;;;;;;;;;;23.98;58.98;101339.53;4986941;28;4035;-67
2023/08/13 12:15:48;;;;;;;;;;;;;;;23.94;59.00;101334.34;4990663;28;4168;-67
2023/08/13 12:18:15;;;;;;;;;;;;;;;23.96;58.91;101336.56;4980960;28;4132;-65
2023/08/13 12:20:41;;;;;;;;;;;;;;;24.02;59.38;101331.75;4994341;28;4210;-63
2023/08/13 12:23:08;;;;;;;;;;;;;;;24.20;58.92;101328.09;4998781;28;4029;-66
2023/08/13 12:25:34;;;;;;;;;;;;;;;24.14;59.08;101331.47;4996995;28;4029;-65
2023/08/13 12:28:01;;;;;;;;;;;;;;;24.22;58.81;101331.06;4979404;28;4025;-65
2023/08/13 12:30:27;;;;;;;;;;;;;;;24.14;58.94;101322.06;4979157;28;4368;-64
2023/08/13 12:32:54;;;;;;;;;;;;;;;24.21;58.55;101326.69;4983820;28;4074;-66
2023/08/13 12:35:21;;;;;;;;;;;;;;;24.13;58.91;101326.38;4975247;28;4092;-66
2023/08/13 12:37:48;;;;;;;;;;;;;;;23.87;59.02;101314.50;4978075;28;4118;-62
2023/08/13 12:40:14;;;;;;;;;;;;;;;23.90;59.62;101311.06;4976318;28;4215;-73
2023/08/13 12:42:41;;;;;;;;;;;;;;;23.77;60.00;101309.81;4979065;28;4043;-66
2023/08/13 12:45:07;;;;;;;;;;;;;;;23.85;59.63;101311.56;4988127;28;4128;-66
2023/08/13 12:47:34;;;;;;;;;;;;;;;23.81;59.13;101301.31;4997524;28;4217;-62
2023/08/13 12:50:00;;;;;;;;;;;;;;;23.92;59.42;101298.84;4989415;28;4141;-63